Alsip, Illinois
Current Conditions -  °F | °C
As of 7:04 AM on Thursday 27 Nov 2014 (Local Time) from KMDW Reporting Station
Overcast Overcast  
Wind Chill: 14°   Ceiling: 1500
Heat Index: 25°   Visibility: 10mi
Dew Point: 19°   Wind: 12mph
Humidity: 78%   Direction: 280°W
Pressure: 30.28"   Gusts: NA
Location:  41.67°N, 87.73°W
Report Text: KMDW 271304Z 28010KT 10SM BKN015 OVC050 M04/M07 A3028 RMK AO2 T10391072
Loading
Personal Weather Stations






























Interactive Weather Map New forecast layout! Learn more

10-Day Weather Forecast

Advertisements
Track Severe Weather on mobile